Time;durP1;ratioP1;P1;durP2;ratioP2;P2;SDS_P1;SDS_P2;PMS_P1;PMS_P2;Temp;Humidity;BMP_temperature;BMP_pressure;BME280_temperature;BME280_humidity;BME280_pressure;Samples;Min_cycle;Max_cycle;Signal;HPM_P1;HPM_P2
2021/03/05 00:00:51;;;;;;;5.95;2.67;;;;;10.40;102239.00;;;;5078654;28;20190;-77
2021/03/05 00:03:18;;;;;;;5.28;3.00;;;;;10.40;102249.00;;;;5090652;28;20195;-78
2021/03/05 00:05:45;;;;;;;5.22;2.83;;;;;10.40;102243.00;;;;5090019;28;20244;-78
2021/03/05 00:08:13;;;;;;;7.07;3.38;;;;;10.40;102252.00;;;;5089695;28;20190;-78
2021/03/05 00:10:41;;;;;;;5.40;3.22;;;;;10.40;102253.00;;;;5089976;28;20202;-78
2021/03/05 00:13:10;;;;;;;8.63;3.67;;;;;10.40;102259.00;;;;5089160;28;20229;-77
2021/03/05 00:15:39;;;;;;;6.28;3.58;;;;;10.40;102266.00;;;;5087912;28;20199;-77
2021/03/05 00:18:07;;;;;;;5.80;3.30;;;;;10.40;102260.00;;;;5088154;28;20722;-77
2021/03/05 00:20:38;;;;;;;5.15;3.33;;;;;10.40;102263.00;;;;5089210;28;20217;-78
2021/03/05 00:23:05;;;;;;;5.32;3.15;;;;;10.40;102272.00;;;;5087989;28;20218;-78
2021/03/05 00:25:32;;;;;;;6.30;3.97;;;;;10.40;102270.00;;;;5088979;28;20572;-77
2021/03/05 00:27:58;;;;;;;4.85;3.30;;;;;10.40;102268.00;;;;5088540;28;20205;-78
2021/03/05 00:30:26;;;;;;;5.43;3.22;;;;;10.30;102275.00;;;;5089430;28;20206;-77
2021/03/05 00:32:53;;;;;;;6.32;3.90;;;;;10.30;102272.00;;;;5089474;28;20225;-78
2021/03/05 00:35:21;;;;;;;3.92;2.63;;;;;10.20;102281.00;;;;5089294;28;20687;-78
2021/03/05 00:37:48;;;;;;;5.20;2.80;;;;;10.20;102273.00;;;;5086265;28;20217;-77
2021/03/05 00:40:17;;;;;;;4.57;2.80;;;;;10.20;102282.00;;;;5089704;28;20194;-78
2021/03/05 00:42:45;;;;;;;4.95;3.20;;;;;10.10;102294.00;;;;5086971;28;20260;-77
2021/03/05 00:45:14;;;;;;;6.55;3.20;;;;;10.00;102285.00;;;;5089511;28;20190;-77
2021/03/05 00:47:41;;;;;;;5.30;3.15;;;;;10.00;102285.00;;;;5087503;28;20743;-78
2021/03/05 00:50:09;;;;;;;4.50;3.03;;;;;9.90;102294.00;;;;5089479;28;20202;-78
2021/03/05 00:52:37;;;;;;;5.07;3.00;;;;;9.90;102300.00;;;;5085252;28;20225;-77
2021/03/05 00:55:05;;;;;;;4.38;3.08;;;;;9.80;102301.00;;;;5088052;28;20191;-77
2021/03/05 00:57:32;;;;;;;4.25;2.95;;;;;9.70;102304.00;;;;5086781;28;20204;-78
2021/03/05 00:59:59;;;;;;;3.58;2.40;;;;;9.70;102306.00;;;;5087688;28;20191;-78
2021/03/05 01:02:25;;;;;;;4.70;2.92;;;;;9.60;102315.00;;;;5088502;28;20677;-77
2021/03/05 01:04:52;;;;;;;5.95;3.22;;;;;9.50;102316.00;;;;5088942;28;20311;-78
2021/03/05 01:07:19;;;;;;;4.93;2.88;;;;;9.50;102315.00;;;;5088187;28;20194;-77
2021/03/05 01:09:46;;;;;;;3.40;2.38;;;;;9.40;102319.00;;;;5087433;28;20195;-78
2021/03/05 01:12:13;;;;;;;4.68;2.90;;;;;9.40;102319.00;;;;5088578;28;20214;-77
2021/03/05 01:14:40;;;;;;;4.10;2.60;;;;;9.30;102312.00;;;;5088317;28;20739;-78
2021/03/05 01:17:06;;;;;;;4.63;2.55;;;;;9.30;102314.00;;;;5088250;28;20198;-77
2021/03/05 01:19:33;;;;;;;6.13;2.63;;;;;9.20;102318.00;;;;5079828;28;20198;-77
2021/03/05 01:22:00;;;;;;;4.28;2.83;;;;;9.20;102313.00;;;;5087524;28;20210;-77
2021/03/05 01:24:27;;;;;;;4.85;2.88;;;;;9.20;102319.00;;;;5087817;28;20202;-77
2021/03/05 01:26:54;;;;;;;4.15;2.42;;;;;9.10;102325.00;;;;5086557;28;20190;-78
2021/03/05 01:29:21;;;;;;;4.40;2.40;;;;;9.10;102324.00;;;;5086993;28;20660;-78
2021/03/05 01:31:48;;;;;;;4.75;2.90;;;;;9.00;102326.00;;;;5087561;28;20343;-78
2021/03/05 01:34:15;;;;;;;4.13;2.42;;;;;9.00;102332.00;;;;5088682;28;20198;-78
2021/03/05 01:36:42;;;;;;;4.75;3.05;;;;;8.90;102332.00;;;;5086175;28;20209;-77
2021/03/05 01:39:08;;;;;;;4.57;2.90;;;;;8.90;102334.00;;;;5087671;28;20191;-77
2021/03/05 01:41:36;;;;;;;5.82;3.30;;;;;8.80;102337.00;;;;5086449;28;20203;-77
2021/03/05 01:44:06;;;;;;;5.38;2.83;;;;;8.80;102331.00;;;;5087256;28;20194;-77
2021/03/05 01:46:33;;;;;;;5.15;2.55;;;;;8.80;102334.00;;;;5086890;28;20230;-77
2021/03/05 01:49:00;;;;;;;5.18;3.20;;;;;8.70;102339.00;;;;5087609;28;20194;-77
2021/03/05 01:51:29;;;;;;;5.60;2.80;;;;;8.70;102334.00;;;;5087641;28;20696;-77
2021/03/05 01:53:56;;;;;;;5.05;2.67;;;;;8.60;102337.00;;;;5077647;28;20209;-77
2021/03/05 01:56:38;;;;;;;4.80;2.55;;;;;8.50;102332.00;;;;5089274;28;20606;-78
2021/03/05 01:59:07;;;;;;;5.55;2.67;;;;;8.50;102339.00;;;;5080226;28;20198;-78
2021/03/05 02:01:35;;;;;;;3.45;2.33;;;;;8.50;102349.00;;;;5086223;28;20725;-78
2021/03/05 02:04:03;;;;;;;6.32;2.80;;;;;8.40;102344.00;;;;5087938;28;20555;-78
2021/03/05 02:06:30;;;;;;;5.50;2.90;;;;;8.40;102343.00;;;;5088036;28;20201;-77
2021/03/05 02:08:56;;;;;;;4.10;2.55;;;;;8.40;102351.00;;;;5083687;28;20206;-78
2021/03/05 02:11:25;;;;;;;3.80;2.47;;;;;8.40;102350.00;;;;5087090;28;20729;-77
2021/03/05 02:13:55;;;;;;;4.50;2.58;;;;;8.30;102351.00;;;;5084138;28;20664;-77
2021/03/05 02:16:33;;;;;;;4.70;2.97;;;;;8.30;102360.00;;;;5087821;28;20720;-77
2021/03/05 02:19:12;;;;;;;4.40;2.88;;;;;8.20;102358.00;;;;5085456;28;20257;-78
2021/03/05 02:22:10;;;;;;;4.55;2.83;;;;;8.10;102364.00;;;;5084572;28;20726;-78
2021/03/05 02:25:17;;;;;;;5.60;3.28;;;;;8.10;102368.00;;;;5073546;28;20248;-78
2021/03/05 02:28:23;;;;;;;4.70;2.75;;;;;8.00;102369.00;;;;5077553;28;20256;-77
2021/03/05 02:31:12;;;;;;;4.40;2.10;;;;;8.00;102372.00;;;;5081513;28;20209;-77
2021/03/05 02:33:45;;;;;;;5.22;2.47;;;;;8.00;102366.00;;;;5081417;28;20216;-77
2021/03/05 02:36:16;;;;;;;4.05;2.42;;;;;8.00;102362.00;;;;5073560;28;20199;-77
2021/03/05 02:38:50;;;;;;;3.75;2.50;;;;;7.90;102359.00;;;;5073374;28;20584;-77
2021/03/05 02:41:20;;;;;;;5.88;2.78;;;;;7.90;102369.00;;;;5072319;28;20194;-77
2021/03/05 02:43:46;;;;;;;5.53;2.78;;;;;7.90;102369.00;;;;5075023;28;20198;-77
2021/03/05 02:46:14;;;;;;;4.70;2.58;;;;;7.80;102372.00;;;;5083732;28;20226;-77
2021/03/05 02:48:45;;;;;;;7.53;2.92;;;;;7.80;102371.00;;;;5085925;28;20260;-77
2021/03/05 02:51:13;;;;;;;4.55;2.33;;;;;7.80;102375.00;;;;5086672;28;20186;-77
2021/03/05 02:53:42;;;;;;;4.97;2.88;;;;;7.80;102383.00;;;;5084698;28;20198;-77
2021/03/05 02:56:14;;;;;;;4.80;2.33;;;;;7.70;102388.00;;;;5086438;28;20279;-77
2021/03/05 02:58:44;;;;;;;6.03;2.85;;;;;7.70;102387.00;;;;5080940;28;20286;-77
2021/03/05 03:01:15;;;;;;;5.85;3.15;;;;;7.70;102392.00;;;;5084403;28;20224;-77
2021/03/05 03:03:43;;;;;;;8.07;2.88;;;;;7.70;102393.00;;;;5075022;28;20257;-77
2021/03/05 03:06:10;;;;;;;4.22;2.67;;;;;7.60;102393.00;;;;5087189;28;20186;-77
2021/03/05 03:08:39;;;;;;;3.55;1.95;;;;;7.60;102396.00;;;;5085096;28;20839;-77
2021/03/05 03:11:06;;;;;;;5.55;2.30;;;;;7.60;102403.00;;;;5087121;28;20206;-77
2021/03/05 03:13:34;;;;;;;5.63;2.92;;;;;7.60;102407.00;;;;5086081;28;20229;-78
2021/03/05 03:16:02;;;;;;;4.60;2.00;;;;;7.60;102403.00;;;;5088354;28;20195;-77
2021/03/05 03:18:33;;;;;;;4.35;2.45;;;;;7.60;102400.00;;;;5085869;28;20606;-77
2021/03/05 03:21:01;;;;;;;6.55;2.50;;;;;7.60;102408.00;;;;5087047;28;20244;-78
2021/03/05 03:23:28;;;;;;;4.80;2.42;;;;;7.50;102404.00;;;;5087929;28;20252;-78
2021/03/05 03:25:55;;;;;;;5.47;2.45;;;;;7.50;102411.00;;;;5089947;28;20201;-78
2021/03/05 03:28:22;;;;;;;7.60;2.47;;;;;7.50;102410.00;;;;5088843;28;20198;-77
2021/03/05 03:30:49;;;;;;;4.72;2.22;;;;;7.50;102401.00;;;;5087891;28;20203;-77
2021/03/05 03:33:17;;;;;;;6.32;2.22;;;;;7.50;102410.00;;;;5088186;28;20271;-78
2021/03/05 03:35:46;;;;;;;5.20;2.22;;;;;7.40;102420.00;;;;5090675;28;20203;-77
2021/03/05 03:38:13;;;;;;;4.05;2.03;;;;;7.40;102420.00;;;;5089582;28;20228;-77
2021/03/05 03:40:41;;;;;;;2.78;1.60;;;;;7.40;102425.00;;;;5090499;28;20679;-77
2021/03/05 03:43:08;;;;;;;4.53;2.15;;;;;7.40;102426.00;;;;5089909;28;20194;-77
2021/03/05 03:45:37;;;;;;;2.50;1.83;;;;;7.40;102438.00;;;;5089727;28;20223;-77
2021/03/05 03:48:06;;;;;;;5.47;1.90;;;;;7.40;102433.00;;;;5086284;28;20737;-77
2021/03/05 03:50:38;;;;;;;3.83;1.50;;;;;7.30;102439.00;;;;5088127;28;20198;-77
2021/03/05 03:53:12;;;;;;;3.45;2.20;;;;;7.30;102435.00;;;;5090550;28;21031;-77
2021/03/05 03:55:39;;;;;;;8.07;2.70;;;;;7.30;102442.00;;;;5090355;28;20186;-77
2021/03/05 03:58:08;;;;;;;2.20;1.30;;;;;7.30;102444.00;;;;5090087;28;20723;-77
2021/03/05 04:00:36;;;;;;;3.05;1.80;;;;;7.30;102447.00;;;;5088166;28;20205;-77
2021/03/05 04:03:05;;;;;;;4.43;2.20;;;;;7.20;102450.00;;;;5090646;28;20568;-77
2021/03/05 04:05:34;;;;;;;5.63;1.83;;;;;7.20;102450.00;;;;5089621;28;20754;-77
2021/03/05 04:08:01;;;;;;;3.72;2.03;;;;;7.20;102451.00;;;;5090116;28;20187;-77
2021/03/05 04:10:29;;;;;;;3.13;1.70;;;;;7.20;102447.00;;;;5089873;28;20201;-77
2021/03/05 04:12:57;;;;;;;4.38;1.65;;;;;7.20;102457.00;;;;5090513;28;20707;-77
2021/03/05 04:15:24;;;;;;;3.83;2.10;;;;;7.10;102456.00;;;;5089264;28;20195;-77
2021/03/05 04:17:52;;;;;;;3.35;1.40;;;;;7.10;102458.00;;;;5088463;28;20252;-77
2021/03/05 04:20:22;;;;;;;4.07;1.60;;;;;7.10;102463.00;;;;5088285;28;20557;-78
2021/03/05 04:22:50;;;;;;;6.93;1.67;;;;;7.10;102473.00;;;;5083654;28;20222;-77
2021/03/05 04:25:17;;;;;;;4.70;2.20;;;;;7.00;102470.00;;;;5088347;28;20676;-77
2021/03/05 04:27:45;;;;;;;3.80;2.10;;;;;7.00;102479.00;;;;5088947;28;20334;-77
2021/03/05 04:30:14;;;;;;;7.03;2.33;;;;;7.00;102483.00;;;;5089577;28;20198;-77
2021/03/05 04:32:42;;;;;;;4.93;1.70;;;;;6.90;102478.00;;;;5089406;28;20241;-77
2021/03/05 04:35:09;;;;;;;4.38;1.70;;;;;6.90;102479.00;;;;5082794;28;20225;-77
2021/03/05 04:37:36;;;;;;;4.95;2.03;;;;;6.90;102490.00;;;;5089125;28;20213;-77
2021/03/05 04:40:05;;;;;;;3.47;1.73;;;;;6.80;102490.00;;;;5088601;28;20201;-77
2021/03/05 04:42:32;;;;;;;3.78;1.80;;;;;6.80;102495.00;;;;5089244;28;20198;-78
2021/03/05 04:45:00;;;;;;;5.30;2.10;;;;;6.80;102494.00;;;;5087968;28;20567;-77
2021/03/05 04:47:26;;;;;;;5.32;1.83;;;;;6.80;102506.00;;;;5090032;28;20226;-77
2021/03/05 04:49:53;;;;;;;4.53;1.80;;;;;6.70;102513.00;;;;5089199;28;20191;-77
2021/03/05 04:52:20;;;;;;;3.22;1.55;;;;;6.70;102514.00;;;;5090432;28;20226;-77
2021/03/05 04:54:46;;;;;;;4.90;1.73;;;;;6.70;102516.00;;;;5087566;28;20255;-77
2021/03/05 04:57:13;;;;;;;2.97;1.65;;;;;6.70;102517.00;;;;5089153;28;20206;-77
2021/03/05 04:59:40;;;;;;;5.45;2.45;;;;;6.60;102516.00;;;;5089520;28;20256;-77
2021/03/05 05:02:08;;;;;;;4.00;2.10;;;;;6.60;102523.00;;;;5073643;28;20588;-77
2021/03/05 05:04:34;;;;;;;4.25;1.42;;;;;6.60;102515.00;;;;5088226;28;20198;-77
2021/03/05 05:07:01;;;;;;;5.75;1.65;;;;;6.60;102515.00;;;;5088689;28;20244;-77
2021/03/05 05:09:28;;;;;;;3.78;1.90;;;;;6.60;102527.00;;;;5088269;28;20243;-77
2021/03/05 05:11:55;;;;;;;6.18;2.17;;;;;6.50;102521.00;;;;5089941;28;20222;-77
2021/03/05 05:14:21;;;;;;;4.50;1.65;;;;;6.50;102526.00;;;;5087683;28;20202;-78
2021/03/05 05:16:48;;;;;;;5.93;1.42;;;;;6.50;102531.00;;;;5074040;28;20285;-77
2021/03/05 05:19:16;;;;;;;3.72;1.30;;;;;6.50;102529.00;;;;5088324;28;20205;-77
2021/03/05 05:21:44;;;;;;;5.13;1.65;;;;;6.40;102528.00;;;;5088061;28;20389;-77
2021/03/05 05:24:11;;;;;;;6.75;1.83;;;;;6.40;102535.00;;;;5078290;28;20256;-77
2021/03/05 05:26:38;;;;;;;4.25;1.83;;;;;6.40;102535.00;;;;5081666;28;20464;-76
2021/03/05 05:29:04;;;;;;;5.25;2.03;;;;;6.40;102541.00;;;;5085392;28;20201;-76
2021/03/05 05:31:31;;;;;;;3.40;1.83;;;;;6.40;102546.00;;;;5086636;28;20206;-76
2021/03/05 05:33:58;;;;;;;3.47;1.83;;;;;6.40;102556.00;;;;5088237;28;20217;-76
2021/03/05 05:36:25;;;;;;;3.92;1.75;;;;;6.30;102549.00;;;;5080044;28;20742;-76
2021/03/05 05:38:52;;;;;;;7.07;2.00;;;;;6.30;102557.00;;;;5086693;28;20201;-76
2021/03/05 05:41:23;;;;;;;4.53;1.77;;;;;6.30;102554.00;;;;5087478;28;20194;-76
2021/03/05 05:43:50;;;;;;;4.72;1.58;;;;;6.30;102552.00;;;;5086624;28;20222;-76
2021/03/05 05:46:20;;;;;;;2.75;1.50;;;;;6.20;102561.00;;;;5085229;28;20229;-76
2021/03/05 05:48:48;;;;;;;3.80;1.73;;;;;6.20;102553.00;;;;5085666;28;20224;-76
2021/03/05 05:51:18;;;;;;;2.85;1.20;;;;;6.20;102554.00;;;;5079564;28;20544;-76
2021/03/05 05:53:47;;;;;;;5.75;2.25;;;;;6.20;102558.00;;;;5087497;28;20222;-76
2021/03/05 05:56:15;;;;;;;5.78;2.08;;;;;6.20;102560.00;;;;5087571;28;20255;-76
2021/03/05 05:58:43;;;;;;;4.13;1.75;;;;;6.20;102554.00;;;;5086998;28;20199;-76
2021/03/05 06:01:10;;;;;;;3.63;1.48;;;;;6.20;102562.00;;;;5078257;28;20244;-76
2021/03/05 06:03:39;;;;;;;3.55;1.10;;;;;6.20;102561.00;;;;5078400;28;20552;-76
2021/03/05 06:06:06;;;;;;;4.28;1.77;;;;;6.20;102564.00;;;;5082163;28;20195;-76
2021/03/05 06:08:33;;;;;;;5.50;2.25;;;;;6.10;102562.00;;;;5085032;28;20201;-76
2021/03/05 06:11:01;;;;;;;4.07;1.42;;;;;6.10;102563.00;;;;5079339;28;20198;-76
2021/03/05 06:13:28;;;;;;;3.70;1.50;;;;;6.10;102564.00;;;;5080810;28;20227;-76
2021/03/05 06:16:12;;;;;;;4.53;1.60;;;;;6.00;102565.00;;;;5084154;28;20198;-75
2021/03/05 06:18:39;;;;;;;2.97;1.27;;;;;6.10;102566.00;;;;5084070;28;20191;-76
2021/03/05 06:21:07;;;;;;;4.03;1.42;;;;;6.10;102577.00;;;;5080724;28;20206;-77
2021/03/05 06:23:35;;;;;;;3.20;1.13;;;;;6.10;102583.00;;;;5086379;28;20194;-76
2021/03/05 06:26:04;;;;;;;2.72;1.27;;;;;6.10;102578.00;;;;5086603;28;20591;-77
2021/03/05 06:28:31;;;;;;;4.43;1.55;;;;;6.10;102596.00;;;;5085760;28;20259;-78
2021/03/05 06:30:57;;;;;;;3.53;1.48;;;;;6.10;102595.00;;;;5078498;28;20206;-78
2021/03/05 06:33:27;;;;;;;3.85;1.35;;;;;6.10;102603.00;;;;5087417;28;20218;-77
2021/03/05 06:35:54;;;;;;;3.03;1.55;;;;;6.10;102608.00;;;;5086384;28;20194;-78
2021/03/05 06:38:40;;;;;;;4.18;1.40;;;;;6.00;102615.00;;;;5088169;28;20201;-77
2021/03/05 06:41:20;;;;;;;4.13;1.42;;;;;6.00;102626.00;;;;5086190;28;20202;-77
2021/03/05 06:43:48;;;;;;;3.55;1.30;;;;;6.00;102625.00;;;;5086934;28;20732;-77
2021/03/05 06:46:32;;;;;;;4.15;1.60;;;;;6.00;102632.00;;;;5082842;28;20240;-76
2021/03/05 06:49:00;;;;;;;3.20;1.38;;;;;6.10;102633.00;;;;5079278;28;20610;-77
2021/03/05 06:51:27;;;;;;;3.15;1.65;;;;;6.10;102640.00;;;;5076024;28;20203;-76
2021/03/05 06:54:09;;;;;;;2.35;1.30;;;;;6.00;102646.00;;;;5078872;28;20271;-77
2021/03/05 06:56:38;;;;;;;3.88;1.58;;;;;6.10;102645.00;;;;5087042;28;20207;-78
2021/03/05 06:59:07;;;;;;;3.92;1.25;;;;;6.10;102657.00;;;;5091134;28;20199;-77
2021/03/05 07:01:52;;;;;;;2.97;1.52;;;;;6.10;102660.00;;;;5090591;28;20202;-78
2021/03/05 07:04:21;;;;;;;1.75;0.95;;;;;6.20;102662.00;;;;5089782;28;20187;-76
2021/03/05 07:07:00;;;;;;;5.00;1.58;;;;;6.20;102660.00;;;;5088620;28;20244;-77
2021/03/05 07:09:29;;;;;;;6.22;1.20;;;;;6.30;102676.00;;;;5091882;28;20248;-77
2021/03/05 07:11:58;;;;;;;3.58;1.13;;;;;6.40;102672.00;;;;5090803;28;20191;-77
2021/03/05 07:14:30;;;;;;;3.65;1.20;;;;;6.40;102682.00;;;;5091919;28;20194;-77
2021/03/05 07:16:57;;;;;;;2.67;1.05;;;;;6.40;102687.00;;;;5090765;28;20198;-77
2021/03/05 07:19:27;;;;;;;4.80;1.40;;;;;6.50;102676.00;;;;5091803;28;20202;-77
2021/03/05 07:21:54;;;;;;;1.92;1.00;;;;;6.50;102691.00;;;;5091090;28;20207;-77
2021/03/05 07:24:22;;;;;;;2.15;1.40;;;;;6.60;102694.00;;;;5090837;28;20269;-77
2021/03/05 07:26:53;;;;;;;2.40;1.42;;;;;6.60;102695.00;;;;5090687;28;20671;-77
2021/03/05 07:29:23;;;;;;;4.80;1.20;;;;;6.70;102704.00;;;;5091854;28;20198;-76
2021/03/05 07:32:04;;;;;;;2.28;1.17;;;;;6.70;102698.00;;;;5090001;28;20228;-77
2021/03/05 07:34:33;;;;;;;8.57;1.92;;;;;6.80;102705.00;;;;5080545;28;20321;-77
2021/03/05 07:37:04;;;;;;;5.95;1.52;;;;;6.90;102710.00;;;;5071011;28;20664;-77
2021/03/05 07:39:33;;;;;;;2.00;1.08;;;;;6.90;102707.00;;;;5081091;28;20198;-77
2021/03/05 07:42:00;;;;;;;3.45;1.67;;;;;7.00;102712.00;;;;5091414;28;20194;-77
2021/03/05 07:44:28;;;;;;;7.60;2.13;;;;;7.10;102721.00;;;;5091076;28;20213;-77
2021/03/05 07:46:55;;;;;;;4.55;1.27;;;;;7.10;102720.00;;;;5090576;28;20218;-77
2021/03/05 07:49:28;;;;;;;2.63;1.23;;;;;7.20;102729.00;;;;5091145;28;20195;-77
2021/03/05 07:51:56;;;;;;;3.65;1.42;;;;;7.30;102730.00;;;;5090781;28;20203;-78
2021/03/05 07:54:45;;;;;;;4.55;1.63;;;;;7.30;102729.00;;;;5090878;28;20549;-78
2021/03/05 07:57:44;;;;;;;3.20;1.08;;;;;7.30;102724.00;;;;5090560;28;20657;-79
2021/03/05 08:00:14;;;;;;;4.30;1.50;;;;;7.40;102731.00;;;;5081451;28;20194;-78
2021/03/05 08:02:55;;;;;;;3.55;1.00;;;;;7.50;102733.00;;;;5089649;28;20202;-78
2021/03/05 08:05:39;;;;;;;4.03;1.30;;;;;7.50;102737.00;;;;5087938;28;20288;-78
2021/03/05 08:08:21;;;;;;;2.65;1.23;;;;;7.60;102740.00;;;;5089898;28;20649;-78
2021/03/05 08:10:52;;;;;;;2.25;1.02;;;;;7.70;102735.00;;;;5073799;28;20227;-78
2021/03/05 08:13:44;;;;;;;3.10;1.20;;;;;7.70;102734.00;;;;5085742;28;20222;-77
2021/03/05 08:16:38;;;;;;;5.03;1.38;;;;;7.70;102746.00;;;;5091031;28;20191;-77
2021/03/05 08:19:45;;;;;;;4.28;1.08;;;;;7.80;102735.00;;;;5072154;28;20195;-77
2021/03/05 08:22:12;;;;;;;2.05;0.80;;;;;8.00;102748.00;;;;5070290;28;20211;-79
2021/03/05 08:24:40;;;;;;;3.13;1.00;;;;;8.00;102745.00;;;;5089360;28;20209;-78
2021/03/05 08:27:18;;;;;;;3.78;1.00;;;;;8.10;102744.00;;;;5087485;28;20210;-78
2021/03/05 08:29:58;;;;;;;4.38;1.33;;;;;8.10;102748.00;;;;5085422;28;20194;-78
2021/03/05 08:32:47;;;;;;;2.42;1.08;;;;;8.10;102760.00;;;;5088766;28;20271;-77
2021/03/05 08:35:14;;;;;;;3.35;1.42;;;;;8.20;102764.00;;;;5083055;28;20198;-78
2021/03/05 08:37:42;;;;;;;1.77;0.68;;;;;8.30;102761.00;;;;5088441;28;20703;-77
2021/03/05 08:40:30;;;;;;;2.40;0.95;;;;;8.30;102770.00;;;;5088202;28;20191;-78
2021/03/05 08:42:58;;;;;;;3.88;0.65;;;;;8.40;102772.00;;;;5088878;28;20210;-78
2021/03/05 08:45:27;;;;;;;1.23;0.43;;;;;8.50;102781.00;;;;5084545;28;20757;-78
2021/03/05 08:47:56;;;;;;;1.35;0.57;;;;;8.50;102785.00;;;;5088877;28;20574;-78
2021/03/05 08:50:29;;;;;;;1.63;0.35;;;;;8.60;102769.00;;;;5076961;28;20194;-78
2021/03/05 08:52:58;;;;;;;2.58;0.70;;;;;8.70;102781.00;;;;5089253;28;20700;-77
2021/03/05 08:55:28;;;;;;;0.88;0.22;;;;;8.70;102773.00;;;;5089031;28;20190;-77
2021/03/05 08:57:56;;;;;;;1.58;0.50;;;;;8.80;102776.00;;;;5085481;28;20211;-77
2021/03/05 09:00:27;;;;;;;1.35;0.32;;;;;8.80;102768.00;;;;5084487;28;20198;-78
2021/03/05 09:03:04;;;;;;;1.20;0.40;;;;;8.80;102777.00;;;;5088538;28;20195;-78
2021/03/05 09:05:33;;;;;;;2.53;0.50;;;;;8.90;102772.00;;;;5085689;28;20290;-79
2021/03/05 09:08:00;;;;;;;0.55;0.20;;;;;9.00;102781.00;;;;5086608;28;20206;-78
2021/03/05 09:10:42;;;;;;;0.90;0.50;;;;;9.00;102789.00;;;;5088244;28;20237;-79
2021/03/05 09:13:10;;;;;;;1.42;0.30;;;;;9.10;102791.00;;;;5086258;28;20313;-78
2021/03/05 09:15:42;;;;;;;1.27;0.50;;;;;9.10;102798.00;;;;5081434;28;20198;-78
2021/03/05 09:18:12;;;;;;;2.47;0.35;;;;;9.20;102789.00;;;;5087609;28;20205;-77
2021/03/05 09:20:44;;;;;;;0.65;0.30;;;;;9.20;102793.00;;;;5078699;28;20244;-77
2021/03/05 09:23:32;;;;;;;2.78;0.20;;;;;9.20;102788.00;;;;5087983;28;20621;-77
2021/03/05 09:26:02;;;;;;;1.55;0.50;;;;;9.30;102792.00;;;;5088576;28;20305;-78
2021/03/05 09:28:38;;;;;;;2.50;0.45;;;;;9.40;102801.00;;;;5079590;28;20304;-78
2021/03/05 09:31:05;;;;;;;0.77;0.30;;;;;9.50;102796.00;;;;5089483;28;20202;-78
2021/03/05 09:33:35;;;;;;;0.93;0.13;;;;;9.50;102803.00;;;;5086882;28;20683;-77
2021/03/05 09:36:06;;;;;;;0.38;0.20;;;;;9.60;102796.00;;;;5089485;28;20652;-76
2021/03/05 09:38:34;;;;;;;0.77;0.17;;;;;9.60;102804.00;;;;5079037;28;20223;-77
2021/03/05 09:41:15;;;;;;;1.80;0.40;;;;;9.60;102807.00;;;;5089118;28;20194;-78
2021/03/05 09:43:42;;;;;;;1.33;0.30;;;;;9.70;102808.00;;;;5088015;28;20204;-77
2021/03/05 09:46:22;;;;;;;0.68;0.20;;;;;9.70;102801.00;;;;5088813;28;20271;-78
2021/03/05 09:48:51;;;;;;;1.23;0.40;;;;;9.80;102809.00;;;;5083060;28;20255;-78
2021/03/05 09:51:18;;;;;;;1.08;0.47;;;;;9.90;102806.00;;;;5088520;28;20729;-78
2021/03/05 09:53:53;;;;;;;0.65;0.10;;;;;9.90;102818.00;;;;5088926;28;20225;-78
2021/03/05 09:56:23;;;;;;;0.32;0.20;;;;;10.00;102812.00;;;;5086353;28;20198;-79
2021/03/05 09:58:55;;;;;;;0.30;0.30;;;;;10.10;102813.00;;;;5088372;28;20647;-78
2021/03/05 10:01:22;;;;;;;0.80;0.10;;;;;10.20;102810.00;;;;5087809;28;20623;-78
2021/03/05 10:03:55;;;;;;;0.73;0.20;;;;;10.20;102816.00;;;;5088698;28;20198;-78
2021/03/05 10:06:22;;;;;;;0.73;0.20;;;;;10.30;102822.00;;;;5087510;28;20202;-79
2021/03/05 10:08:59;;;;;;;1.17;0.10;;;;;10.30;102816.00;;;;5084435;28;20211;-79
2021/03/05 10:11:32;;;;;;;1.40;0.57;;;;;10.40;102824.00;;;;5079616;28;20201;-81
2021/03/05 10:13:59;;;;;;;1.02;0.30;;;;;10.50;102825.00;;;;5075845;28;20233;-80
2021/03/05 10:16:29;;;;;;;1.75;0.30;;;;;10.50;102824.00;;;;5088014;28;20190;-79
2021/03/05 10:19:02;;;;;;;4.05;0.30;;;;;10.60;102831.00;;;;5078847;28;20201;-79
2021/03/05 10:21:29;;;;;;;2.80;0.30;;;;;10.70;102834.00;;;;5085425;28;20190;-79
2021/03/05 10:23:57;;;;;;;1.02;0.68;;;;;10.70;102828.00;;;;5080658;28;20205;-78
2021/03/05 10:26:27;;;;;;;0.65;0.30;;;;;10.70;102817.00;;;;5087502;28;20247;-79
2021/03/05 10:28:56;;;;;;;3.10;0.43;;;;;10.80;102825.00;;;;5088348;28;20702;-79
2021/03/05 10:31:42;;;;;;;1.85;0.65;;;;;10.90;102825.00;;;;5085451;28;20259;-79
2021/03/05 10:34:24;;;;;;;4.18;0.38;;;;;10.90;102829.00;;;;5089785;28;20313;-78
2021/03/05 10:36:51;;;;;;;1.15;0.25;;;;;11.00;102828.00;;;;5090670;28;20611;-79
2021/03/05 10:39:18;;;;;;;0.47;0.28;;;;;11.10;102834.00;;;;5085751;28;20263;-79
2021/03/05 10:41:55;;;;;;;1.95;0.40;;;;;11.10;102837.00;;;;5089660;28;20198;-79
2021/03/05 10:44:23;;;;;;;1.25;0.40;;;;;11.20;102847.00;;;;5090038;28;20206;-79
2021/03/05 10:46:50;;;;;;;1.27;0.32;;;;;11.30;102861.00;;;;5089749;28;20226;-80
2021/03/05 10:49:17;;;;;;;0.98;0.28;;;;;11.40;102849.00;;;;5088836;28;20205;-81
2021/03/05 10:51:44;;;;;;;1.05;0.38;;;;;11.40;102846.00;;;;5086057;28;20271;-80
2021/03/05 10:54:11;;;;;;;0.93;0.32;;;;;11.50;102852.00;;;;5087948;28;20213;-76
2021/03/05 10:56:38;;;;;;;0.40;0.20;;;;;11.60;102850.00;;;;5090814;28;20202;-76
2021/03/05 10:59:06;;;;;;;3.40;0.52;;;;;11.60;102847.00;;;;5090779;28;20205;-77
2021/03/05 11:01:32;;;;;;;1.77;0.50;;;;;11.70;102848.00;;;;5087303;28;20498;-78
2021/03/05 11:03:59;;;;;;;0.57;0.43;;;;;11.80;102853.00;;;;5089811;28;20206;-78
2021/03/05 11:06:26;;;;;;;1.48;0.20;;;;;11.90;102857.00;;;;5089181;28;20186;-77
2021/03/05 11:08:53;;;;;;;0.93;0.20;;;;;11.90;102845.00;;;;5091023;28;20190;-79
2021/03/05 11:11:20;;;;;;;0.35;0.20;;;;;12.00;102851.00;;;;5091591;28;20194;-77
2021/03/05 11:13:47;;;;;;;0.80;0.20;;;;;12.10;102853.00;;;;5090522;28;20228;-77
2021/03/05 11:16:14;;;;;;;0.20;0.10;;;;;12.10;102861.00;;;;5090554;28;20861;-78
2021/03/05 11:18:40;;;;;;;0.93;0.30;;;;;12.20;102863.00;;;;5090387;28;20206;-77
2021/03/05 11:21:07;;;;;;;0.73;0.20;;;;;12.20;102857.00;;;;5090834;28;20267;-77
2021/03/05 11:23:34;;;;;;;2.13;0.70;;;;;12.30;102865.00;;;;5089701;28;20692;-77
2021/03/05 11:26:01;;;;;;;0.80;0.50;;;;;12.40;102875.00;;;;5090198;28;20247;-77
2021/03/05 11:28:28;;;;;;;1.10;0.30;;;;;12.40;102878.00;;;;5090483;28;20213;-78
2021/03/05 11:30:55;;;;;;;2.00;0.40;;;;;12.50;102887.00;;;;5089033;28;20280;-76
2021/03/05 11:33:21;;;;;;;0.57;0.35;;;;;12.50;102879.00;;;;5077188;28;20226;-77
2021/03/05 11:35:48;;;;;;;0.82;0.22;;;;;12.50;102878.00;;;;5082855;28;20198;-78
2021/03/05 11:38:15;;;;;;;0.68;0.20;;;;;12.50;102879.00;;;;5090838;28;20213;-77
2021/03/05 11:40:42;;;;;;;1.17;0.30;;;;;12.60;102889.00;;;;5090833;28;20198;-78
2021/03/05 11:43:09;;;;;;;1.90;0.20;;;;;12.60;102879.00;;;;5089082;28;20210;-78
2021/03/05 11:45:36;;;;;;;1.27;0.20;;;;;12.70;102869.00;;;;5089574;28;20558;-77
2021/03/05 11:48:03;;;;;;;0.73;0.20;;;;;12.70;102877.00;;;;5090955;28;20202;-77
2021/03/05 11:50:30;;;;;;;1.30;0.35;;;;;12.80;102879.00;;;;5089587;28;20209;-77
2021/03/05 11:52:57;;;;;;;1.40;0.30;;;;;12.80;102897.00;;;;5090198;28;20228;-77
2021/03/05 11:55:23;;;;;;;0.88;0.30;;;;;12.90;102882.00;;;;5090349;28;20638;-77
2021/03/05 11:57:51;;;;;;;1.35;0.30;;;;;12.90;102876.00;;;;5089822;28;20210;-77
2021/03/05 12:00:19;;;;;;;1.90;0.50;;;;;13.00;102877.00;;;;5085257;28;20203;-78
2021/03/05 12:02:46;;;;;;;4.43;0.57;;;;;13.00;102873.00;;;;5070113;28;20199;-77
2021/03/05 12:05:14;;;;;;;1.52;0.50;;;;;13.00;102887.00;;;;5073842;28;20582;-78
2021/03/05 12:07:40;;;;;;;1.13;0.55;;;;;13.00;102877.00;;;;5089773;28;20194;-78
2021/03/05 12:10:08;;;;;;;1.17;0.40;;;;;13.10;102878.00;;;;5089285;28;20198;-77
2021/03/05 12:12:35;;;;;;;1.50;0.38;;;;;13.10;102895.00;;;;5090243;28;20218;-78
2021/03/05 12:15:01;;;;;;;1.90;0.60;;;;;13.10;102879.00;;;;5089221;28;21224;-78
2021/03/05 12:17:29;;;;;;;1.38;0.40;;;;;13.10;102879.00;;;;5089412;28;20552;-78
2021/03/05 12:19:56;;;;;;;2.88;0.50;;;;;13.10;102877.00;;;;5090162;28;20202;-78
2021/03/05 12:22:23;;;;;;;1.40;0.60;;;;;13.10;102884.00;;;;5088654;28;20206;-77
2021/03/05 12:24:49;;;;;;;1.23;0.40;;;;;13.10;102876.00;;;;5088017;28;20202;-77
2021/03/05 12:27:16;;;;;;;1.70;0.20;;;;;13.10;102891.00;;;;5089568;28;20190;-77
2021/03/05 12:29:43;;;;;;;1.15;0.38;;;;;13.10;102898.00;;;;5086095;28;20248;-78